sensor_id;sensor_type;location;lat;lon;timestamp;pressure;altitude;pressure_sealevel;temperature
48854;BMP280;34673;52.808;17.856;2023-08-07T00:02:11;98685.91;;;14.62
48854;BMP280;34673;52.808;17.856;2023-08-07T00:04:37;98679.38;;;14.55
48854;BMP280;34673;52.808;17.856;2023-08-07T00:07:05;98699.88;;;14.61
48854;BMP280;34673;52.808;17.856;2023-08-07T00:09:32;98677.03;;;14.49
48854;BMP280;34673;52.808;17.856;2023-08-07T00:11:59;98708.34;;;14.65
48854;BMP280;34673;52.808;17.856;2023-08-07T00:14:26;98696.50;;;14.59
48854;BMP280;34673;52.808;17.856;2023-08-07T00:16:53;98720.53;;;14.65
48854;BMP280;34673;52.808;17.856;2023-08-07T00:19:20;98720.53;;;14.65
48854;BMP280;34673;52.808;17.856;2023-08-07T00:21:48;98720.53;;;14.65
48854;BMP280;34673;52.808;17.856;2023-08-07T00:24:15;98705.53;;;14.52
48854;BMP280;34673;52.808;17.856;2023-08-07T00:26:42;98702.00;;;14.53
48854;BMP280;34673;52.808;17.856;2023-08-07T00:29:09;98718.31;;;14.57
48854;BMP280;34673;52.808;17.856;2023-08-07T00:31:36;98691.19;;;14.44
48854;BMP280;34673;52.808;17.856;2023-08-07T00:34:06;98731.75;;;14.65
48854;BMP280;34673;52.808;17.856;2023-08-07T00:36:34;98707.22;;;14.53
48854;BMP280;34673;52.808;17.856;2023-08-07T00:39:02;98713.47;;;14.67
48854;BMP280;34673;52.808;17.856;2023-08-07T00:41:32;98706.75;;;14.62
48854;BMP280;34673;52.808;17.856;2023-08-07T00:44:00;98719.53;;;14.67
48854;BMP280;34673;52.808;17.856;2023-08-07T00:46:29;98715.47;;;14.61
48854;BMP280;34673;52.808;17.856;2023-08-07T00:48:57;98708.59;;;14.60
48854;BMP280;34673;52.808;17.856;2023-08-07T00:51:24;98703.41;;;14.60
48854;BMP280;34673;52.808;17.856;2023-08-07T00:53:52;98707.66;;;14.61
48854;BMP280;34673;52.808;17.856;2023-08-07T00:56:20;98696.50;;;14.59
48854;BMP280;34673;52.808;17.856;2023-08-07T00:58:49;98713.66;;;14.63
48854;BMP280;34673;52.808;17.856;2023-08-07T01:01:17;98703.78;;;14.53
48854;BMP280;34673;52.808;17.856;2023-08-07T01:03:45;98708.59;;;14.60
48854;BMP280;34673;52.808;17.856;2023-08-07T01:06:12;98700.78;;;14.60
48854;BMP280;34673;52.808;17.856;2023-08-07T01:08:40;98708.34;;;14.65
48854;BMP280;34673;52.808;17.856;2023-08-07T01:14:07;98702.41;;;14.63
48854;BMP280;34673;52.808;17.856;2023-08-07T01:16:44;98701.53;;;14.62
48854;BMP280;34673;52.808;17.856;2023-08-07T01:19:23;98704.41;;;14.58
48854;BMP280;34673;52.808;17.856;2023-08-07T01:22:11;98693.00;;;14.60
48854;BMP280;34673;52.808;17.856;2023-08-07T01:24:41;98706.06;;;14.59
48854;BMP280;34673;52.808;17.856;2023-08-07T01:29:56;98707.22;;;14.53
48854;BMP280;34673;52.808;17.856;2023-08-07T01:35:06;98704.81;;;14.49
48854;BMP280;34673;52.808;17.856;2023-08-07T01:37:37;98709.81;;;14.53
48854;BMP280;34673;52.808;17.856;2023-08-07T01:40:06;98702.31;;;14.47
48854;BMP280;34673;52.808;17.856;2023-08-07T01:42:35;98705.81;;;14.46
48854;BMP280;34673;52.808;17.856;2023-08-07T01:45:04;98709.00;;;14.51
48854;BMP280;34673;52.808;17.856;2023-08-07T01:47:31;98695.22;;;14.49
48854;BMP280;34673;52.808;17.856;2023-08-07T01:49:59;98683.31;;;14.45
48854;BMP280;34673;52.808;17.856;2023-08-07T01:52:26;98688.34;;;14.48
48854;BMP280;34673;52.808;17.856;2023-08-07T01:54:54;98684.09;;;14.47
48854;BMP280;34673;52.808;17.856;2023-08-07T01:57:21;98683.00;;;14.51
48854;BMP280;34673;52.808;17.856;2023-08-07T01:59:48;98684.81;;;14.49
48854;BMP280;34673;52.808;17.856;2023-08-07T02:02:15;98672.91;;;14.45
48854;BMP280;34673;52.808;17.856;2023-08-07T02:04:43;98670.91;;;14.50
48854;BMP280;34673;52.808;17.856;2023-08-07T02:07:10;98664.50;;;14.40
48854;BMP280;34673;52.808;17.856;2023-08-07T02:09:37;98671.38;;;14.41
48854;BMP280;34673;52.808;17.856;2023-08-07T02:12:05;98671.25;;;14.44
48854;BMP280;34673;52.808;17.856;2023-08-07T02:14:32;98678.19;;;14.44
48854;BMP280;34673;52.808;17.856;2023-08-07T02:16:59;98667.16;;;14.38
48854;BMP280;34673;52.808;17.856;2023-08-07T02:19:26;98668.88;;;14.39
48854;BMP280;34673;52.808;17.856;2023-08-07T02:21:54;98690.03;;;14.49
48854;BMP280;34673;52.808;17.856;2023-08-07T02:24:21;98673.75;;;14.46
48854;BMP280;34673;52.808;17.856;2023-08-07T02:26:48;98669.38;;;14.46
48854;BMP280;34673;52.808;17.856;2023-08-07T02:29:18;98667.72;;;14.45
48854;BMP280;34673;52.808;17.856;2023-08-07T02:31:45;98665.34;;;14.40
48854;BMP280;34673;52.808;17.856;2023-08-07T02:34:12;98661.13;;;14.38
48854;BMP280;34673;52.808;17.856;2023-08-07T02:36:39;98646.06;;;14.27
48854;BMP280;34673;52.808;17.856;2023-08-07T02:39:06;98671.53;;;14.38
48854;BMP280;34673;52.808;17.856;2023-08-07T02:41:34;98671.53;;;14.38
48854;BMP280;34673;52.808;17.856;2023-08-07T02:44:01;98662.81;;;14.39
48854;BMP280;34673;52.808;17.856;2023-08-07T02:46:28;98664.66;;;14.37
48854;BMP280;34673;52.808;17.856;2023-08-07T02:48:55;98666.31;;;14.38
48854;BMP280;34673;52.808;17.856;2023-08-07T02:51:22;98666.31;;;14.38
48854;BMP280;34673;52.808;17.856;2023-08-07T02:53:49;98675.91;;;14.37
48854;BMP280;34673;52.808;17.856;2023-08-07T02:56:17;98674.22;;;14.36
48854;BMP280;34673;52.808;17.856;2023-08-07T02:58:44;98671.69;;;14.35
48854;BMP280;34673;52.808;17.856;2023-08-07T03:01:11;98673.22;;;14.39
48854;BMP280;34673;52.808;17.856;2023-08-07T03:03:38;98668.63;;;14.27
48854;BMP280;34673;52.808;17.856;2023-08-07T03:06:06;98684.84;;;14.32
48854;BMP280;34673;52.808;17.856;2023-08-07T03:08:33;98661.38;;;14.16
48854;BMP280;34673;52.808;17.856;2023-08-07T03:11:00;98694.31;;;14.33
48854;BMP280;34673;52.808;17.856;2023-08-07T03:13:27;98692.66;;;14.32
48854;BMP280;34673;52.808;17.856;2023-08-07T03:16:04;98702.22;;;14.31
48854;BMP280;34673;52.808;17.856;2023-08-07T03:18:33;98684.38;;;14.24
48854;BMP280;34673;52.808;17.856;2023-08-07T03:21:01;98715.28;;;14.30
48854;BMP280;34673;52.808;17.856;2023-08-07T03:23:28;98710.94;;;14.30
48854;BMP280;34673;52.808;17.856;2023-08-07T03:26:06;98712.00;;;14.26
48854;BMP280;34673;52.808;17.856;2023-08-07T03:28:46;98707.94;;;14.21
48854;BMP280;34673;52.808;17.856;2023-08-07T03:31:16;98718.81;;;14.29
48854;BMP280;34673;52.808;17.856;2023-08-07T03:33:44;98696.63;;;14.22
48854;BMP280;34673;52.808;17.856;2023-08-07T03:36:13;98722.03;;;14.34
48854;BMP280;34673;52.808;17.856;2023-08-07T03:38:40;98722.34;;;14.28
48854;BMP280;34673;52.808;17.856;2023-08-07T03:41:08;98734.28;;;14.32
48854;BMP280;34673;52.808;17.856;2023-08-07T03:43:38;98727.56;;;14.28
48854;BMP280;34673;52.808;17.856;2023-08-07T03:46:05;98736.03;;;14.31
48854;BMP280;34673;52.808;17.856;2023-08-07T03:48:32;98731.06;;;14.27
48854;BMP280;34673;52.808;17.856;2023-08-07T03:51:05;98732.59;;;14.31
48854;BMP280;34673;52.808;17.856;2023-08-07T03:53:43;98732.81;;;14.26
48854;BMP280;34673;52.808;17.856;2023-08-07T03:56:10;98739.47;;;14.32
48854;BMP280;34673;52.808;17.856;2023-08-07T03:58:37;98741.16;;;14.33
48854;BMP280;34673;52.808;17.856;2023-08-07T04:01:05;98707.50;;;14.12
48854;BMP280;34673;52.808;17.856;2023-08-07T04:03:33;98726.16;;;14.21
48854;BMP280;34673;52.808;17.856;2023-08-07T04:06:00;98739.94;;;14.23
48854;BMP280;34673;52.808;17.856;2023-08-07T04:08:28;98741.28;;;14.30
48854;BMP280;34673;52.808;17.856;2023-08-07T04:11:05;98743.16;;;14.28
48854;BMP280;34673;52.808;17.856;2023-08-07T04:13:34;98707.66;;;14.09
48854;BMP280;34673;52.808;17.856;2023-08-07T04:16:01;98741.47;;;14.27
48854;BMP280;34673;52.808;17.856;2023-08-07T04:18:33;98750.03;;;14.29
48854;BMP280;34673;52.808;17.856;2023-08-07T04:21:01;98746.66;;;14.27
48854;BMP280;34673;52.808;17.856;2023-08-07T04:23:31;98724.91;;;14.10
48854;BMP280;34673;52.808;17.856;2023-08-07T04:25:59;98748.63;;;14.22
48854;BMP280;34673;52.808;17.856;2023-08-07T04:28:29;98728.44;;;14.09
48854;BMP280;34673;52.808;17.856;2023-08-07T04:30:57;98735.09;;;14.15
48854;BMP280;34673;52.808;17.856;2023-08-07T04:33:24;98759.19;;;14.18
48854;BMP280;34673;52.808;17.856;2023-08-07T04:35:51;98755.81;;;14.16
48854;BMP280;34673;52.808;17.856;2023-08-07T04:38:19;98731.25;;;14.05
48854;BMP280;34673;52.808;17.856;2023-08-07T04:40:47;98755.81;;;14.16
48854;BMP280;34673;52.808;17.856;2023-08-07T04:43:16;98754.16;;;14.15
48854;BMP280;34673;52.808;17.856;2023-08-07T04:45:43;98762.88;;;14.14
48854;BMP280;34673;52.808;17.856;2023-08-07T04:48:13;98762.88;;;14.14
48854;BMP280;34673;52.808;17.856;2023-08-07T04:50:41;98770.72;;;14.13
48854;BMP280;34673;52.808;17.856;2023-08-07T04:53:08;98764.69;;;14.12
48854;BMP280;34673;52.808;17.856;2023-08-07T04:55:36;98774.25;;;14.12
48854;BMP280;34673;52.808;17.856;2023-08-07T04:58:03;98758.25;;;14.02
48854;BMP280;34673;52.808;17.856;2023-08-07T05:00:30;98778.00;;;14.06
48854;BMP280;34673;52.808;17.856;2023-08-07T05:02:58;98787.63;;;14.04
48854;BMP280;34673;52.808;17.856;2023-08-07T05:05:25;98790.13;;;14.06
48854;BMP280;34673;52.808;17.856;2023-08-07T05:07:54;98802.91;;;14.10
48854;BMP280;34673;52.808;17.856;2023-08-07T05:10:22;98790.38;;;14.01
48854;BMP280;34673;52.808;17.856;2023-08-07T05:12:49;98791.25;;;14.00
48854;BMP280;34673;52.808;17.856;2023-08-07T05:15:25;98796.06;;;14.09
48854;BMP280;34673;52.808;17.856;2023-08-07T05:17:52;98802.09;;;14.10
48854;BMP280;34673;52.808;17.856;2023-08-07T05:20:20;98806.44;;;14.09
48854;BMP280;34673;52.808;17.856;2023-08-07T05:22:47;98809.59;;;14.16
48854;BMP280;34673;52.808;17.856;2023-08-07T05:25:15;98800.16;;;14.13
48854;BMP280;34673;52.808;17.856;2023-08-07T05:27:43;98812.75;;;14.23
48854;BMP280;34673;52.808;17.856;2023-08-07T05:30:11;98789.88;;;14.12
48854;BMP280;34673;52.808;17.856;2023-08-07T05:32:39;98799.28;;;14.14
48854;BMP280;34673;52.808;17.856;2023-08-07T05:35:07;98812.59;;;14.26
48854;BMP280;34673;52.808;17.856;2023-08-07T05:37:35;98805.59;;;14.28
48854;BMP280;34673;52.808;17.856;2023-08-07T05:40:02;98815.97;;;14.28
48854;BMP280;34673;52.808;17.856;2023-08-07T05:42:30;98827.91;;;14.32
48854;BMP280;34673;52.808;17.856;2023-08-07T05:44:58;98838.16;;;14.35
48854;BMP280;34673;52.808;17.856;2023-08-07T05:47:25;98833.94;;;14.32
48854;BMP280;34673;52.808;17.856;2023-08-07T05:49:52;98837.03;;;14.40
48854;BMP280;34673;52.808;17.856;2023-08-07T05:52:20;98829.00;;;14.45
48854;BMP280;34673;52.808;17.856;2023-08-07T05:54:47;98828.69;;;14.51
48854;BMP280;34673;52.808;17.856;2023-08-07T05:57:14;98831.97;;;14.56
48854;BMP280;34673;52.808;17.856;2023-08-07T05:59:42;98837.31;;;14.53
48854;BMP280;34673;52.808;17.856;2023-08-07T06:02:09;98844.97;;;14.56
48854;BMP280;34673;52.808;17.856;2023-08-07T06:04:40;98846.06;;;14.52
48854;BMP280;34673;52.808;17.856;2023-08-07T06:07:08;98849.66;;;14.48
48854;BMP280;34673;52.808;17.856;2023-08-07T06:09:35;98846.13;;;14.49
48854;BMP280;34673;52.808;17.856;2023-08-07T06:12:02;98851.34;;;14.49
48854;BMP280;34673;52.808;17.856;2023-08-07T06:14:30;98852.94;;;14.53
48854;BMP280;34673;52.808;17.856;2023-08-07T06:16:57;98849.53;;;14.51
48854;BMP280;34673;52.808;17.856;2023-08-07T06:19:25;98845.59;;;14.61
48854;BMP280;34673;52.808;17.856;2023-08-07T06:21:59;98838.41;;;14.67
48854;BMP280;34673;52.808;17.856;2023-08-07T06:24:27;98856.19;;;14.93
48854;BMP280;34673;52.808;17.856;2023-08-07T06:26:54;98841.31;;;15.13
48854;BMP280;34673;52.808;17.856;2023-08-07T06:29:22;98833.94;;;15.21
48854;BMP280;34673;52.808;17.856;2023-08-07T06:31:49;98848.78;;;15.36
48854;BMP280;34673;52.808;17.856;2023-08-07T06:34:16;98850.31;;;15.40
48854;BMP280;34673;52.808;17.856;2023-08-07T06:36:43;98844.94;;;15.43
48854;BMP280;34673;52.808;17.856;2023-08-07T06:39:11;98845.09;;;15.40
48854;BMP280;34673;52.808;17.856;2023-08-07T06:41:38;98804.97;;;15.27
48854;BMP280;34673;52.808;17.856;2023-08-07T06:44:07;98852.88;;;15.58
48854;BMP280;34673;52.808;17.856;2023-08-07T06:46:34;98849.09;;;15.63
48854;BMP280;34673;52.808;17.856;2023-08-07T06:49:01;98847.19;;;15.67
48854;BMP280;34673;52.808;17.856;2023-08-07T06:51:28;98858.84;;;15.77
48854;BMP280;34673;52.808;17.856;2023-08-07T06:53:55;98854.38;;;15.79
48854;BMP280;34673;52.808;17.856;2023-08-07T06:56:23;98862.69;;;15.70
48854;BMP280;34673;52.808;17.856;2023-08-07T06:58:50;98857.94;;;15.61
48854;BMP280;34673;52.808;17.856;2023-08-07T07:01:17;98874.25;;;15.64
48854;BMP280;34673;52.808;17.856;2023-08-07T07:03:45;98879.63;;;15.61
48854;BMP280;34673;52.808;17.856;2023-08-07T07:06:14;98868.84;;;15.51
48854;BMP280;34673;52.808;17.856;2023-08-07T07:08:41;98882.63;;;15.54
48854;BMP280;34673;52.808;17.856;2023-08-07T07:11:08;98880.09;;;15.52
48854;BMP280;34673;52.808;17.856;2023-08-07T07:13:36;98857.69;;;15.32
48854;BMP280;34673;52.808;17.856;2023-08-07T07:16:03;98875.75;;;15.52
48854;BMP280;34673;52.808;17.856;2023-08-07T07:18:30;98892.28;;;15.51
48854;BMP280;34673;52.808;17.856;2023-08-07T07:20:58;98884.47;;;15.51
48854;BMP280;34673;52.808;17.856;2023-08-07T07:23:27;98884.69;;;15.64
48854;BMP280;34673;52.808;17.856;2023-08-07T07:25:55;98894.34;;;15.95
48854;BMP280;34673;52.808;17.856;2023-08-07T07:28:23;98891.34;;;16.19
48854;BMP280;34673;52.808;17.856;2023-08-07T07:30:51;98887.56;;;16.40
48854;BMP280;34673;52.808;17.856;2023-08-07T07:33:18;98893.38;;;16.46
48854;BMP280;34673;52.808;17.856;2023-08-07T07:35:45;98884.41;;;16.50
48854;BMP280;34673;52.808;17.856;2023-08-07T07:38:13;98886.94;;;16.67
48854;BMP280;34673;52.808;17.856;2023-08-07T07:40:41;98897.66;;;16.78
48854;BMP280;34673;52.808;17.856;2023-08-07T07:43:08;98891.50;;;16.79
48854;BMP280;34673;52.808;17.856;2023-08-07T07:45:35;98902.44;;;16.86
48854;BMP280;34673;52.808;17.856;2023-08-07T07:48:06;98908.50;;;16.87
48854;BMP280;34673;52.808;17.856;2023-08-07T07:50:35;98893.25;;;16.63
48854;BMP280;34673;52.808;17.856;2023-08-07T07:53:02;98887.28;;;16.61
48854;BMP280;34673;52.808;17.856;2023-08-07T07:55:29;98914.38;;;16.74
48854;BMP280;34673;52.808;17.856;2023-08-07T07:57:56;98907.75;;;16.84
48854;BMP280;34673;52.808;17.856;2023-08-07T08:00:26;98903.09;;;16.90
48854;BMP280;34673;52.808;17.856;2023-08-07T08:02:53;98907.97;;;16.96
48854;BMP280;34673;52.808;17.856;2023-08-07T08:05:21;98911.84;;;17.04
48854;BMP280;34673;52.808;17.856;2023-08-07T08:07:48;98901.31;;;17.20
48854;BMP280;34673;52.808;17.856;2023-08-07T08:10:16;98902.66;;;17.42
48854;BMP280;34673;52.808;17.856;2023-08-07T08:12:43;98898.38;;;17.41
48854;BMP280;34673;52.808;17.856;2023-08-07T08:15:10;98904.56;;;17.54
48854;BMP280;34673;52.808;17.856;2023-08-07T08:17:38;98900.72;;;17.45
48854;BMP280;34673;52.808;17.856;2023-08-07T08:20:06;98916.09;;;17.36
48854;BMP280;34673;52.808;17.856;2023-08-07T08:22:34;98921.88;;;17.26
48854;BMP280;34673;52.808;17.856;2023-08-07T08:25:02;98919.72;;;17.19
48854;BMP280;34673;52.808;17.856;2023-08-07T08:27:31;98919.56;;;17.06
48854;BMP280;34673;52.808;17.856;2023-08-07T08:29:59;98924.41;;;16.98
48854;BMP280;34673;52.808;17.856;2023-08-07T08:32:26;98932.06;;;17.01
48854;BMP280;34673;52.808;17.856;2023-08-07T08:34:53;98945.38;;;16.96
48854;BMP280;34673;52.808;17.856;2023-08-07T08:37:21;98947.50;;;16.90
48854;BMP280;34673;52.808;17.856;2023-08-07T08:39:48;98946.84;;;16.86
48854;BMP280;34673;52.808;17.856;2023-08-07T08:42:16;98942.69;;;16.66
48854;BMP280;34673;52.808;17.856;2023-08-07T08:44:53;98948.09;;;16.63
48854;BMP280;34673;52.808;17.856;2023-08-07T08:47:21;98948.00;;;16.49
48854;BMP280;34673;52.808;17.856;2023-08-07T08:49:51;98952.03;;;16.38
48854;BMP280;34673;52.808;17.856;2023-08-07T08:52:21;98952.97;;;16.22
48854;BMP280;34673;52.808;17.856;2023-08-07T08:54:49;98957.34;;;16.21
48854;BMP280;34673;52.808;17.856;2023-08-07T08:57:17;98964.41;;;16.19
48854;BMP280;34673;52.808;17.856;2023-08-07T08:59:45;98973.63;;;16.09
48854;BMP280;34673;52.808;17.856;2023-08-07T09:02:13;98984.72;;;15.97
48854;BMP280;34673;52.808;17.856;2023-08-07T09:04:40;98973.56;;;15.77
48854;BMP280;34673;52.808;17.856;2023-08-07T09:07:09;98947.69;;;15.55
48854;BMP280;34673;52.808;17.856;2023-08-07T09:09:37;98972.47;;;15.64
48854;BMP280;34673;52.808;17.856;2023-08-07T09:12:07;98966.97;;;15.70
48854;BMP280;34673;52.808;17.856;2023-08-07T09:14:37;98972.56;;;15.80
48854;BMP280;34673;52.808;17.856;2023-08-07T09:17:07;98965.88;;;15.91
48854;BMP280;34673;52.808;17.856;2023-08-07T09:19:35;98967.06;;;16.02
48854;BMP280;34673;52.808;17.856;2023-08-07T09:22:02;98968.69;;;16.20
48854;BMP280;34673;52.808;17.856;2023-08-07T09:24:29;98943.34;;;16.22
48854;BMP280;34673;52.808;17.856;2023-08-07T09:26:57;98964.59;;;16.48
48854;BMP280;34673;52.808;17.856;2023-08-07T09:29:26;98963.91;;;16.60
48854;BMP280;34673;52.808;17.856;2023-08-07T09:31:54;98969.66;;;16.82
48854;BMP280;34673;52.808;17.856;2023-08-07T09:34:21;98957.34;;;17.00
48854;BMP280;34673;52.808;17.856;2023-08-07T09:36:48;98943.31;;;17.17
48854;BMP280;34673;52.808;17.856;2023-08-07T09:39:16;98952.00;;;17.48
48854;BMP280;34673;52.808;17.856;2023-08-07T09:41:43;98969.06;;;17.84
48854;BMP280;34673;52.808;17.856;2023-08-07T09:44:10;98966.06;;;18.04
48854;BMP280;34673;52.808;17.856;2023-08-07T09:46:41;98958.97;;;18.06
48854;BMP280;34673;52.808;17.856;2023-08-07T09:49:09;98957.84;;;17.96
48854;BMP280;34673;52.808;17.856;2023-08-07T09:51:43;98933.47;;;17.81
48854;BMP280;34673;52.808;17.856;2023-08-07T09:54:11;98940.41;;;17.66
48854;BMP280;34673;52.808;17.856;2023-08-07T09:56:43;98954.25;;;17.54
48854;BMP280;34673;52.808;17.856;2023-08-07T09:59:13;98947.09;;;17.42
48854;BMP280;34673;52.808;17.856;2023-08-07T10:01:41;98944.47;;;17.27
48854;BMP280;34673;52.808;17.856;2023-08-07T10:04:11;98952.56;;;17.23
48854;BMP280;34673;52.808;17.856;2023-08-07T10:06:43;98946.22;;;17.13
48854;BMP280;34673;52.808;17.856;2023-08-07T10:13:41;98959.97;;;16.84
48854;BMP280;34673;52.808;17.856;2023-08-07T10:16:08;98942.38;;;16.72
48854;BMP280;34673;52.808;17.856;2023-08-07T10:18:35;98958.66;;;16.77
48854;BMP280;34673;52.808;17.856;2023-08-07T10:21:05;98945.88;;;16.71
48854;BMP280;34673;52.808;17.856;2023-08-07T10:23:35;98971.81;;;16.74
48854;BMP280;34673;52.808;17.856;2023-08-07T11:07:29;99023.69;;;15.65
48854;BMP280;34673;52.808;17.856;2023-08-07T11:09:58;99038.88;;;15.91
48854;BMP280;34673;52.808;17.856;2023-08-07T11:12:27;99032.88;;;16.07
48854;BMP280;34673;52.808;17.856;2023-08-07T11:14:55;99022.28;;;16.10
48854;BMP280;34673;52.808;17.856;2023-08-07T11:17:27;99038.50;;;16.32
48854;BMP280;34673;52.808;17.856;2023-08-07T11:19:55;99048.28;;;16.45
48854;BMP280;34673;52.808;17.856;2023-08-07T11:22:23;99034.31;;;16.46
48854;BMP280;34673;52.808;17.856;2023-08-07T11:24:50;99056.94;;;16.78
48854;BMP280;34673;52.808;17.856;2023-08-07T11:27:18;99066.22;;;17.00
48854;BMP280;34673;52.808;17.856;2023-08-07T11:29:48;99064.03;;;17.24
48854;BMP280;34673;52.808;17.856;2023-08-07T11:32:16;99054.88;;;17.47
48854;BMP280;34673;52.808;17.856;2023-08-07T11:34:49;99067.47;;;17.70
48854;BMP280;34673;52.808;17.856;2023-08-07T11:37:17;99056.63;;;17.92
48854;BMP280;34673;52.808;17.856;2023-08-07T11:39:45;99040.34;;;18.02
48854;BMP280;34673;52.808;17.856;2023-08-07T11:42:13;99039.78;;;17.97
48854;BMP280;34673;52.808;17.856;2023-08-07T11:44:41;99069.44;;;18.11
48854;BMP280;34673;52.808;17.856;2023-08-07T11:47:09;99048.13;;;18.03
48854;BMP280;34673;52.808;17.856;2023-08-07T11:49:37;99066.47;;;18.17
48854;BMP280;34673;52.808;17.856;2023-08-07T11:52:05;99059.56;;;18.16
48854;BMP280;34673;52.808;17.856;2023-08-07T11:54:33;99074.75;;;18.10
48854;BMP280;34673;52.808;17.856;2023-08-07T11:57:00;99051.47;;;17.91
48854;BMP280;34673;52.808;17.856;2023-08-07T11:59:27;99069.25;;;18.00
48854;BMP280;34673;52.808;17.856;2023-08-07T12:01:54;99091.28;;;17.96
48854;BMP280;34673;52.808;17.856;2023-08-07T12:04:22;99096.03;;;17.89
48854;BMP280;34673;52.808;17.856;2023-08-07T12:06:53;99085.84;;;17.85
48854;BMP280;34673;52.808;17.856;2023-08-07T12:09:22;99098.16;;;17.83
48854;BMP280;34673;52.808;17.856;2023-08-07T12:11:49;99083.63;;;17.77
48854;BMP280;34673;52.808;17.856;2023-08-07T12:14:16;99098.50;;;17.77
48854;BMP280;34673;52.808;17.856;2023-08-07T12:16:45;99091.09;;;17.69
48854;BMP280;34673;52.808;17.856;2023-08-07T12:19:14;99091.09;;;17.69
48854;BMP280;34673;52.808;17.856;2023-08-07T12:21:43;99104.34;;;17.82
48854;BMP280;34673;52.808;17.856;2023-08-07T12:24:12;99100.53;;;17.87
48854;BMP280;34673;52.808;17.856;2023-08-07T12:26:40;99109.78;;;17.93
48854;BMP280;34673;52.808;17.856;2023-08-07T12:29:07;99076.50;;;17.81
48854;BMP280;34673;52.808;17.856;2023-08-07T12:31:34;99065.28;;;17.79
48854;BMP280;34673;52.808;17.856;2023-08-07T12:34:05;99095.41;;;18.00
48854;BMP280;34673;52.808;17.856;2023-08-07T12:36:35;99083.44;;;17.96
48854;BMP280;34673;52.808;17.856;2023-08-07T12:39:04;99091.69;;;18.04
48854;BMP280;34673;52.808;17.856;2023-08-07T12:41:33;99073.53;;;18.01
48854;BMP280;34673;52.808;17.856;2023-08-07T12:44:03;99065.13;;;17.96
48854;BMP280;34673;52.808;17.856;2023-08-07T12:46:30;99085.34;;;18.23
48854;BMP280;34673;52.808;17.856;2023-08-07T12:48:58;99082.47;;;18.42
48854;BMP280;34673;52.808;17.856;2023-08-07T12:51:25;99073.94;;;18.67
48854;BMP280;34673;52.808;17.856;2023-08-07T12:53:52;99059.53;;;18.74
48854;BMP280;34673;52.808;17.856;2023-08-07T12:56:20;99070.50;;;18.80
48854;BMP280;34673;52.808;17.856;2023-08-07T12:58:47;99068.50;;;18.98
48854;BMP280;34673;52.808;17.856;2023-08-07T13:01:14;99071.56;;;19.19
48854;BMP280;34673;52.808;17.856;2023-08-07T13:03:41;99069.00;;;19.18
48854;BMP280;34673;52.808;17.856;2023-08-07T13:06:09;99069.81;;;19.06
48854;BMP280;34673;52.808;17.856;2023-08-07T13:08:38;99070.03;;;18.88
48854;BMP280;34673;52.808;17.856;2023-08-07T13:11:06;99085.56;;;18.77
48854;BMP280;34673;52.808;17.856;2023-08-07T13:13:33;99053.28;;;18.48
48854;BMP280;34673;52.808;17.856;2023-08-07T13:16:00;99086.75;;;18.71
48854;BMP280;34673;52.808;17.856;2023-08-07T13:18:27;99096.41;;;18.71
48854;BMP280;34673;52.808;17.856;2023-08-07T13:20:55;99091.94;;;18.73
48854;BMP280;34673;52.808;17.856;2023-08-07T13:23:23;99088.63;;;18.69
48854;BMP280;34673;52.808;17.856;2023-08-07T13:25:50;99098.66;;;18.63
48854;BMP280;34673;52.808;17.856;2023-08-07T13:28:17;99092.19;;;18.68
48854;BMP280;34673;52.808;17.856;2023-08-07T13:30:45;99098.75;;;18.75
48854;BMP280;34673;52.808;17.856;2023-08-07T13:33:12;99082.13;;;18.76
48854;BMP280;34673;52.808;17.856;2023-08-07T13:35:39;99095.84;;;18.80
48854;BMP280;34673;52.808;17.856;2023-08-07T13:38:07;99102.97;;;18.78
48854;BMP280;34673;52.808;17.856;2023-08-07T13:40:34;99103.91;;;18.77
48854;BMP280;34673;52.808;17.856;2023-08-07T13:43:02;99078.91;;;18.71
48854;BMP280;34673;52.808;17.856;2023-08-07T13:45:35;99081.84;;;18.81
48854;BMP280;34673;52.808;17.856;2023-08-07T13:48:02;99114.91;;;19.11
48854;BMP280;34673;52.808;17.856;2023-08-07T13:50:31;99110.75;;;19.21
48854;BMP280;34673;52.808;17.856;2023-08-07T13:52:58;99119.19;;;19.26
48854;BMP280;34673;52.808;17.856;2023-08-07T13:55:40;99097.50;;;19.10
48854;BMP280;34673;52.808;17.856;2023-08-07T13:58:08;99112.94;;;19.14
48854;BMP280;34673;52.808;17.856;2023-08-07T14:00:36;99120.50;;;19.19
48854;BMP280;34673;52.808;17.856;2023-08-07T14:03:04;99123.31;;;19.16
48854;BMP280;34673;52.808;17.856;2023-08-07T14:05:31;99149.34;;;19.19
48854;BMP280;34673;52.808;17.856;2023-08-07T14:07:58;99133.28;;;18.96
48854;BMP280;34673;52.808;17.856;2023-08-07T14:10:25;99152.75;;;18.92
48854;BMP280;34673;52.808;17.856;2023-08-07T14:12:53;99127.16;;;18.67
48854;BMP280;34673;52.808;17.856;2023-08-07T14:15:20;99160.44;;;18.81
48854;BMP280;34673;52.808;17.856;2023-08-07T14:17:48;99171.28;;;18.75
48854;BMP280;34673;52.808;17.856;2023-08-07T14:20:15;99168.25;;;18.67
48854;BMP280;34673;52.808;17.856;2023-08-07T14:22:42;99153.66;;;18.63
48854;BMP280;34673;52.808;17.856;2023-08-07T14:25:09;99158.53;;;18.54
48854;BMP280;34673;52.808;17.856;2023-08-07T14:27:37;99169.84;;;18.55
48854;BMP280;34673;52.808;17.856;2023-08-07T14:30:04;99166.00;;;18.46
48854;BMP280;34673;52.808;17.856;2023-08-07T14:32:32;99171.41;;;18.43
48854;BMP280;34673;52.808;17.856;2023-08-07T14:35:00;99173.47;;;18.38
48854;BMP280;34673;52.808;17.856;2023-08-07T14:37:27;99173.53;;;18.36
48854;BMP280;34673;52.808;17.856;2023-08-07T14:39:55;99175.31;;;18.36
48854;BMP280;34673;52.808;17.856;2023-08-07T14:42:23;99186.72;;;18.35
48854;BMP280;34673;52.808;17.856;2023-08-07T14:44:50;99177.53;;;18.28
48854;BMP280;34673;52.808;17.856;2023-08-07T14:47:17;99194.75;;;18.32
48854;BMP280;34673;52.808;17.856;2023-08-07T14:49:45;99187.84;;;18.31
48854;BMP280;34673;52.808;17.856;2023-08-07T14:52:13;99188.03;;;18.28
48854;BMP280;34673;52.808;17.856;2023-08-07T14:54:40;99171.34;;;18.14
48854;BMP280;34673;52.808;17.856;2023-08-07T14:57:07;99193.25;;;18.28